Esler Regional Airport
KESF : now visible

Airfield :











YOU CAN JOIN US ON...

 
LOGIN :

Register | Disclaimer

   EN    FR    IT 

 









Legend :    VFR   Marginal VFR   IFR   Intensive IFR   Very Intensive IFR
Visi :
Ceiling :
>= 8 km
>= 3000ft
5 to 8 km
1000 to 3000 ft
1500m to 5 km
500 to 1000 ft
800 to 1500m
200 to 500 ft
< 800m
< 200 ft
Symbols :   Thunderstorms  Fog  Heavy snow  Heavy precipitations  Wind > 20 kt






- Airport Elevation : 112 ft


KESF - Esler Regional

CURRENT METAR :
  • 061753Z AUTO 16011G16KT 10SM FEW037 21/11 A3015 RMK AO2 SLP210 T02110111 10211 20050 58015

EXPIRED METARs :
  • 061653Z AUTO 17008KT 140V210 10SM CLR 20/12 A3019 RMK AO2 SLP221 T02000122
  • 061553Z AUTO 14006KT 10SM CLR 17/13 A3020 RMK AO2 SLP227 T01670133
  • 061510Z AUTO 15003KT 10SM SCT001 12/12 A3020 RMK AO2 T01220117

TAF N/A
KZHU FIR / North America



MET'MAP, your aeronautical weather chart ! - Copyright ORBIFLY December 2007 - Disclaimer

ORBIFLY MET'MAP TEAM :

Programming & Development : Alexandra Zaïnal
Original concept : Baudouin d'Aumeries
Technical & hardware support : Manuel Goepfert
Assistance : Marc-Olivier Méhu




SOURCES & CREDITS :

   NOAA       Earth
Advisory